createdAt,value
2018-11-22T00:00:27.523Z,931.87
2018-11-22T00:01:27.474Z,931.91
2018-11-22T00:02:27.427Z,931.92
2018-11-22T00:03:27.380Z,931.89
2018-11-22T00:04:27.337Z,931.92
2018-11-22T00:05:27.284Z,931.92
2018-11-22T00:06:27.236Z,931.95
2018-11-22T00:07:27.190Z,931.99
2018-11-22T00:08:27.143Z,931.97
2018-11-22T00:09:27.097Z,931.97
2018-11-22T00:10:27.046Z,931.97
2018-11-22T00:11:26.999Z,931.98
2018-11-22T00:12:26.951Z,931.95
2018-11-22T00:13:26.905Z,931.99
2018-11-22T00:14:26.855Z,931.99
2018-11-22T00:15:26.807Z,932.00
2018-11-22T00:16:26.761Z,932.02
2018-11-22T00:17:26.712Z,932.02
2018-11-22T00:18:26.667Z,932.04
2018-11-22T00:19:26.617Z,932.06
2018-11-22T00:20:26.569Z,932.05
2018-11-22T00:21:26.526Z,932.05
2018-11-22T00:22:26.474Z,932.08
2018-11-22T00:23:26.428Z,932.04
2018-11-22T00:24:26.380Z,932.09
2018-11-22T00:25:26.334Z,932.13
2018-11-22T00:26:26.284Z,932.13
2018-11-22T00:27:26.236Z,932.13
2018-11-22T00:28:26.188Z,932.14
2018-11-22T00:29:26.141Z,932.11
2018-11-22T00:30:26.094Z,932.12
2018-11-22T00:31:26.046Z,932.13
2018-11-22T00:32:25.998Z,932.11
2018-11-22T00:33:25.951Z,932.11
2018-11-22T00:34:25.904Z,932.15
2018-11-22T00:35:25.855Z,932.17
2018-11-22T00:36:25.809Z,932.14
2018-11-22T00:37:25.760Z,932.16
2018-11-22T00:38:25.713Z,932.18
2018-11-22T00:39:25.671Z,932.18
2018-11-22T00:40:25.621Z,932.20
2018-11-22T00:41:25.570Z,932.21
2018-11-22T00:42:25.522Z,932.21
2018-11-22T00:43:25.477Z,932.22
2018-11-22T00:44:25.433Z,932.20
2018-11-22T00:45:25.385Z,932.27
2018-11-22T00:46:25.333Z,932.22
2018-11-22T00:47:25.288Z,932.25
2018-11-22T00:48:25.237Z,932.19
2018-11-22T00:49:25.195Z,932.15
2018-11-22T00:50:25.142Z,932.16
2018-11-22T00:51:25.095Z,932.13
2018-11-22T00:52:25.047Z,932.17
2018-11-22T00:53:25.000Z,932.16
2018-11-22T00:54:24.953Z,932.21
2018-11-22T00:55:24.906Z,932.13
2018-11-22T00:56:24.857Z,932.13
2018-11-22T00:57:24.809Z,932.12
2018-11-22T00:58:24.762Z,932.15
2018-11-22T00:59:24.714Z,932.11
2018-11-22T01:00:24.667Z,932.13
2018-11-22T01:01:24.619Z,932.13
2018-11-22T01:02:24.576Z,932.12
2018-11-22T01:03:24.524Z,932.10
2018-11-22T01:04:24.477Z,932.12
2018-11-22T01:05:24.429Z,932.13
2018-11-22T01:06:24.382Z,932.15
2018-11-22T01:07:24.334Z,932.14
2018-11-22T01:08:24.289Z,932.15
2018-11-22T01:09:24.239Z,932.20
2018-11-22T01:10:24.193Z,932.19
2018-11-22T01:11:24.097Z,932.19
2018-11-22T01:12:24.097Z,932.20
2018-11-22T01:13:24.049Z,932.19
2018-11-22T01:14:24.002Z,932.14
2018-11-22T01:15:23.956Z,932.19
2018-11-22T01:16:23.907Z,932.19
2018-11-22T01:17:23.859Z,932.23
2018-11-22T01:18:23.812Z,932.22
2018-11-22T01:19:23.764Z,932.21
2018-11-22T01:20:23.717Z,932.23
2018-11-22T01:21:23.669Z,932.22
2018-11-22T01:22:23.621Z,932.22
2018-11-22T01:23:23.575Z,932.25
2018-11-22T01:24:23.528Z,932.23
2018-11-22T01:25:23.479Z,932.26
2018-11-22T01:26:23.432Z,932.25
2018-11-22T01:27:23.385Z,932.22
2018-11-22T01:28:23.336Z,932.24
2018-11-22T01:29:23.289Z,932.21
2018-11-22T01:30:23.241Z,932.25
2018-11-22T01:31:23.194Z,932.23
2018-11-22T01:32:23.146Z,932.21
2018-11-22T01:33:23.099Z,932.22
2018-11-22T01:34:23.053Z,932.17
2018-11-22T01:35:23.004Z,932.17
2018-11-22T01:36:22.957Z,932.17
2018-11-22T01:37:22.908Z,932.17
2018-11-22T01:38:22.861Z,932.18
2018-11-22T01:39:22.814Z,932.16
2018-11-22T01:40:22.768Z,932.17
2018-11-22T01:41:22.719Z,932.17
2018-11-22T01:42:22.672Z,932.11
2018-11-22T01:43:22.624Z,932.11
2018-11-22T01:44:22.576Z,932.10
2018-11-22T01:45:22.529Z,932.12
2018-11-22T01:46:22.482Z,932.10
2018-11-22T01:47:22.434Z,932.09
2018-11-22T01:48:22.387Z,932.07
2018-11-22T01:49:22.339Z,932.10
2018-11-22T01:50:22.293Z,932.06
2018-11-22T01:51:22.245Z,932.05
2018-11-22T01:52:22.197Z,932.03
2018-11-22T01:53:22.153Z,932.03
2018-11-22T01:54:22.107Z,932.08
2018-11-22T01:55:22.055Z,932.06
2018-11-22T01:56:22.007Z,932.06
2018-11-22T01:57:21.960Z,932.05
2018-11-22T01:58:21.914Z,932.06
2018-11-22T01:59:21.866Z,932.02
2018-11-22T02:00:21.818Z,932.06
2018-11-22T02:01:21.773Z,932.04
2018-11-22T02:02:21.723Z,932.02
2018-11-22T02:03:21.676Z,932.05
2018-11-22T02:04:21.628Z,932.03
2018-11-22T02:05:21.581Z,932.01
2018-11-22T02:06:22.613Z,932.02
2018-11-22T02:07:21.486Z,932.00
2018-11-22T02:08:21.439Z,932.01
2018-11-22T02:09:21.391Z,931.96
2018-11-22T02:10:21.345Z,931.96
2018-11-22T02:11:21.297Z,931.89
2018-11-22T02:12:21.252Z,931.91
2018-11-22T02:13:21.201Z,931.92
2018-11-22T02:14:21.154Z,931.88
2018-11-22T02:15:21.110Z,931.86
2018-11-22T02:16:21.059Z,931.87
2018-11-22T02:17:21.012Z,931.88
2018-11-22T02:18:20.964Z,931.85
2018-11-22T02:19:20.917Z,931.84
2018-11-22T02:20:20.869Z,931.85
2018-11-22T02:21:20.822Z,931.82
2018-11-22T02:22:20.775Z,931.80
2018-11-22T02:23:20.727Z,931.80
2018-11-22T02:24:20.679Z,931.77
2018-11-22T02:25:20.632Z,931.77
2018-11-22T02:26:20.585Z,931.75
2018-11-22T02:27:20.537Z,931.75
2018-11-22T02:28:20.490Z,931.80
2018-11-22T02:29:20.442Z,931.79
2018-11-22T02:30:20.396Z,931.73
2018-11-22T02:31:20.347Z,931.71
2018-11-22T02:32:20.302Z,931.69
2018-11-22T02:33:20.254Z,931.72
2018-11-22T02:34:20.206Z,931.66
2018-11-22T02:35:20.161Z,931.70
2018-11-22T02:36:20.111Z,931.71
2018-11-22T02:37:20.064Z,931.66
2018-11-22T02:38:20.015Z,931.63
2018-11-22T02:39:19.968Z,931.60
2018-11-22T02:40:19.921Z,931.60
2018-11-22T02:41:19.874Z,931.55
2018-11-22T02:42:19.826Z,931.57
2018-11-22T02:43:19.778Z,931.58
2018-11-22T02:44:19.734Z,931.55
2018-11-22T02:45:19.695Z,931.57
2018-11-22T02:46:19.640Z,931.56
2018-11-22T02:47:19.589Z,931.53
2018-11-22T02:48:19.541Z,931.52
2018-11-22T02:49:19.493Z,931.51
2018-11-22T02:50:19.446Z,931.47
2018-11-22T02:51:19.398Z,931.48
2018-11-22T02:52:19.351Z,931.46
2018-11-22T02:53:19.304Z,931.45
2018-11-22T02:54:19.256Z,931.41
2018-11-22T02:55:19.209Z,931.38
2018-11-22T02:56:19.161Z,931.38
2018-11-22T02:57:19.113Z,931.38
2018-11-22T02:58:19.067Z,931.38
2018-11-22T02:59:19.022Z,931.31
2018-11-22T03:00:18.971Z,931.29
2018-11-22T03:01:18.927Z,931.32
2018-11-22T03:02:18.877Z,931.32
2018-11-22T03:03:18.829Z,931.30
2018-11-22T03:04:18.791Z,931.29
2018-11-22T03:05:18.736Z,931.25
2018-11-22T03:06:18.690Z,931.29
2018-11-22T03:07:18.639Z,931.24
2018-11-22T03:08:18.593Z,931.32
2018-11-22T03:09:18.545Z,931.30
2018-11-22T03:10:18.497Z,931.26
2018-11-22T03:11:18.450Z,931.25
2018-11-22T03:12:18.403Z,931.25
2018-11-22T03:13:18.355Z,931.20
2018-11-22T03:14:18.307Z,931.22
2018-11-22T03:15:18.260Z,931.22
2018-11-22T03:16:18.213Z,931.20
2018-11-22T03:17:18.169Z,931.20
2018-11-22T03:18:18.118Z,931.18
2018-11-22T03:19:18.070Z,931.19
2018-11-22T03:20:18.025Z,931.15
2018-11-22T03:21:17.977Z,931.15
2018-11-22T03:22:17.928Z,931.14
2018-11-22T03:23:17.881Z,931.11
2018-11-22T03:24:17.837Z,931.09
2018-11-22T03:25:17.989Z,931.08
2018-11-22T03:26:17.739Z,931.03
2018-11-22T03:27:17.692Z,931.05
2018-11-22T03:28:17.644Z,930.98
2018-11-22T03:29:17.596Z,930.96
2018-11-22T03:30:17.554Z,930.99
2018-11-22T03:31:17.502Z,930.97
2018-11-22T03:32:17.455Z,930.95
2018-11-22T03:33:17.409Z,930.95
2018-11-22T03:34:17.360Z,930.96
2018-11-22T03:35:17.312Z,930.96
2018-11-22T03:36:17.266Z,930.92
2018-11-22T03:37:17.217Z,930.94
2018-11-22T03:38:17.170Z,930.90
2018-11-22T03:39:17.123Z,930.92
2018-11-22T03:40:17.076Z,930.89
2018-11-22T03:41:17.076Z,930.84
2018-11-22T03:42:16.981Z,930.83
2018-11-22T03:43:16.935Z,930.83
2018-11-22T03:44:16.886Z,930.80
2018-11-22T03:45:16.839Z,930.80
2018-11-22T03:46:16.792Z,930.73
2018-11-22T03:47:16.745Z,930.73
2018-11-22T03:48:16.697Z,930.77
2018-11-22T03:49:16.650Z,930.77
2018-11-22T03:50:16.602Z,930.74
2018-11-22T03:51:16.607Z,930.69
2018-11-22T03:52:16.509Z,930.67
2018-11-22T03:53:16.460Z,930.63
2018-11-22T03:54:16.423Z,930.65
2018-11-22T03:55:16.374Z,930.63
2018-11-22T03:56:16.319Z,930.60
2018-11-22T03:57:16.271Z,930.60
2018-11-22T03:58:16.224Z,930.55
2018-11-22T03:59:16.177Z,930.56
2018-11-22T04:00:16.129Z,930.54
2018-11-22T04:01:16.081Z,930.57
2018-11-22T04:02:16.034Z,930.57
2018-11-22T04:03:15.987Z,930.54
2018-11-22T04:04:15.940Z,930.56
2018-11-22T04:05:15.898Z,930.54
2018-11-22T04:06:15.852Z,930.56
2018-11-22T04:07:15.798Z,930.50
2018-11-22T04:08:15.752Z,930.52
2018-11-22T04:09:15.704Z,930.49
2018-11-22T04:10:15.656Z,930.48
2018-11-22T04:11:15.609Z,930.47
2018-11-22T04:12:15.562Z,930.50
2018-11-22T04:13:15.514Z,930.51
2018-11-22T04:14:15.466Z,930.46
2018-11-22T04:15:15.418Z,930.51
2018-11-22T04:16:15.371Z,930.51
2018-11-22T04:17:15.326Z,930.47
2018-11-22T04:18:15.277Z,930.46
2018-11-22T04:19:15.230Z,930.46
2018-11-22T04:20:15.183Z,930.45
2018-11-22T04:21:15.136Z,930.48
2018-11-22T04:22:15.088Z,930.46
2018-11-22T04:23:15.041Z,930.47
2018-11-22T04:24:14.993Z,930.46
2018-11-22T04:25:14.947Z,930.40
2018-11-22T04:26:14.899Z,930.42
2018-11-22T04:27:14.852Z,930.38
2018-11-22T04:28:14.804Z,930.36
2018-11-22T04:29:14.799Z,930.31
2018-11-22T04:30:14.709Z,930.29
2018-11-22T04:31:14.673Z,930.28
2018-11-22T04:32:14.614Z,930.26
2018-11-22T04:33:14.567Z,930.26
2018-11-22T04:34:14.520Z,930.28
2018-11-22T04:35:14.472Z,930.31
2018-11-22T04:36:14.426Z,930.27
2018-11-22T04:37:14.383Z,930.24
2018-11-22T04:38:14.331Z,930.24
2018-11-22T04:39:14.283Z,930.24
2018-11-22T04:40:14.237Z,930.22
2018-11-22T04:41:14.188Z,930.23
2018-11-22T04:42:14.141Z,930.26
2018-11-22T04:43:14.094Z,930.25
2018-11-22T04:44:14.046Z,930.23
2018-11-22T04:45:13.999Z,930.20
2018-11-22T04:46:13.951Z,930.14
2018-11-22T04:47:13.904Z,930.20
2018-11-22T04:48:13.857Z,930.16
2018-11-22T04:49:13.809Z,930.14
2018-11-22T04:50:13.762Z,930.14
2018-11-22T04:51:13.715Z,930.14
2018-11-22T04:52:13.667Z,930.06
2018-11-22T04:53:13.620Z,930.11
2018-11-22T04:54:13.572Z,930.13
2018-11-22T04:55:13.526Z,930.08
2018-11-22T04:56:13.481Z,930.10
2018-11-22T04:57:13.431Z,930.08
2018-11-22T04:58:13.384Z,930.09
2018-11-22T04:59:13.336Z,930.08
2018-11-22T05:00:13.299Z,930.07
2018-11-22T05:01:13.241Z,930.11
2018-11-22T05:02:13.194Z,930.14
2018-11-22T05:03:13.147Z,930.18
2018-11-22T05:04:13.100Z,930.14
2018-11-22T05:05:13.052Z,930.11
2018-11-22T05:06:13.006Z,930.15
2018-11-22T05:07:12.958Z,930.13
2018-11-22T05:08:12.914Z,930.12
2018-11-22T05:09:12.864Z,930.16
2018-11-22T05:10:12.819Z,930.11
2018-11-22T05:11:12.770Z,930.13
2018-11-22T05:12:12.721Z,930.10
2018-11-22T05:13:12.674Z,930.07
2018-11-22T05:14:12.628Z,930.06
2018-11-22T05:15:12.581Z,930.05
2018-11-22T05:16:12.534Z,930.07
2018-11-22T05:17:12.486Z,930.11
2018-11-22T05:18:12.439Z,930.06
2018-11-22T05:19:12.392Z,930.10
2018-11-22T05:20:12.345Z,930.06
2018-11-22T05:21:12.297Z,930.08
2018-11-22T05:22:12.251Z,930.06
2018-11-22T05:23:12.204Z,930.07
2018-11-22T05:24:12.155Z,930.01
2018-11-22T05:25:12.108Z,929.99
2018-11-22T05:26:12.061Z,929.98
2018-11-22T05:27:12.014Z,929.97
2018-11-22T05:28:11.976Z,929.96
2018-11-22T05:29:12.503Z,929.97
2018-11-22T05:30:11.872Z,929.99
2018-11-22T05:31:11.827Z,930.00
2018-11-22T05:32:11.778Z,929.93
2018-11-22T05:33:11.730Z,929.97
2018-11-22T05:34:11.683Z,930.00
2018-11-22T05:35:11.639Z,930.00
2018-11-22T05:36:11.589Z,930.01
2018-11-22T05:37:11.543Z,929.99
2018-11-22T05:38:11.494Z,930.03
2018-11-22T05:39:11.450Z,930.04
2018-11-22T05:40:11.401Z,930.03
2018-11-22T05:41:11.352Z,930.07
2018-11-22T05:42:11.308Z,930.03
2018-11-22T05:43:11.258Z,930.00
2018-11-22T05:44:11.211Z,930.01
2018-11-22T05:45:11.164Z,929.98
2018-11-22T05:46:11.121Z,929.98
2018-11-22T05:47:11.070Z,929.98
2018-11-22T05:48:11.022Z,929.96
2018-11-22T05:49:10.975Z,929.93
2018-11-22T05:50:10.932Z,929.92
2018-11-22T05:51:10.881Z,929.94
2018-11-22T05:52:10.833Z,929.91
2018-11-22T05:53:10.786Z,929.92
2018-11-22T05:54:10.739Z,929.87
2018-11-22T05:55:10.692Z,929.87
2018-11-22T05:56:10.645Z,929.87
2018-11-22T05:57:10.597Z,929.86
2018-11-22T05:58:10.550Z,929.88
2018-11-22T05:59:10.505Z,929.89
2018-11-22T06:00:10.456Z,929.89
2018-11-22T06:01:10.409Z,929.88
2018-11-22T06:02:10.362Z,929.91
2018-11-22T06:03:10.314Z,929.91
2018-11-22T06:04:10.267Z,929.94
2018-11-22T06:05:10.222Z,929.96
2018-11-22T06:06:10.173Z,929.98
2018-11-22T06:07:10.126Z,929.96
2018-11-22T06:08:10.079Z,929.94
2018-11-22T06:09:10.033Z,929.94
2018-11-22T06:10:09.990Z,929.95
2018-11-22T06:11:09.938Z,929.92
2018-11-22T06:12:09.890Z,929.96
2018-11-22T06:13:09.845Z,929.98
2018-11-22T06:14:09.797Z,929.94
2018-11-22T06:15:09.698Z,929.98
2018-11-22T06:16:09.701Z,929.95
2018-11-22T06:17:09.654Z,929.93
2018-11-22T06:18:09.606Z,929.90
2018-11-22T06:19:09.560Z,929.97
2018-11-22T06:20:09.512Z,929.96
2018-11-22T06:21:09.465Z,929.99
2018-11-22T06:22:09.417Z,929.92
2018-11-22T06:23:09.371Z,929.94
2018-11-22T06:24:09.323Z,929.96
2018-11-22T06:25:09.276Z,929.95
2018-11-22T06:26:09.228Z,929.94
2018-11-22T06:27:09.183Z,929.94
2018-11-22T06:28:09.136Z,929.93
2018-11-22T06:29:09.087Z,929.93
2018-11-22T06:30:09.042Z,929.95
2018-11-22T06:31:08.993Z,929.92
2018-11-22T06:32:08.945Z,929.89
2018-11-22T06:33:08.898Z,929.89
2018-11-22T06:34:08.851Z,929.85
2018-11-22T06:35:10.003Z,929.87
2018-11-22T06:36:08.756Z,929.89
2018-11-22T06:37:08.709Z,929.86
2018-11-22T06:38:08.667Z,929.96
2018-11-22T06:39:08.614Z,929.93
2018-11-22T06:40:08.768Z,929.95
2018-11-22T06:41:08.520Z,929.94
2018-11-22T06:42:08.478Z,929.94
2018-11-22T06:43:08.425Z,929.96
2018-11-22T06:44:08.379Z,930.02
2018-11-22T06:45:08.331Z,929.99
2018-11-22T06:46:08.283Z,930.04
2018-11-22T06:47:08.239Z,930.05
2018-11-22T06:48:08.189Z,930.05
2018-11-22T06:49:08.141Z,930.04
2018-11-22T06:50:08.096Z,930.01
2018-11-22T06:51:08.050Z,930.01
2018-11-22T06:52:08.000Z,930.03
2018-11-22T06:53:07.953Z,930.02
2018-11-22T06:54:07.906Z,930.01
2018-11-22T06:55:07.858Z,930.03
2018-11-22T06:56:07.811Z,930.07
2018-11-22T06:57:07.763Z,930.03
2018-11-22T06:58:07.716Z,930.03
2018-11-22T06:59:07.670Z,930.05
2018-11-22T07:00:07.629Z,930.08
2018-11-22T07:01:07.574Z,930.08
2018-11-22T07:02:07.527Z,930.09
2018-11-22T07:03:07.480Z,930.13
2018-11-22T07:04:07.432Z,930.17
2018-11-22T07:05:07.385Z,930.15
2018-11-22T07:06:07.338Z,930.16
2018-11-22T07:07:07.290Z,930.16
2018-11-22T07:08:07.243Z,930.22
2018-11-22T07:09:07.195Z,930.20
2018-11-22T07:10:07.149Z,930.23
2018-11-22T07:11:07.101Z,930.24
2018-11-22T07:12:07.054Z,930.26
2018-11-22T07:13:07.014Z,930.22
2018-11-22T07:14:06.959Z,930.24
2018-11-22T07:15:06.912Z,930.25
2018-11-22T07:16:06.865Z,930.26
2018-11-22T07:17:06.817Z,930.25
2018-11-22T07:18:06.770Z,930.24
2018-11-22T07:19:06.722Z,930.29
2018-11-22T07:20:06.625Z,930.27
2018-11-22T07:21:06.628Z,930.28
2018-11-22T07:22:06.580Z,930.29
2018-11-22T07:23:06.535Z,930.35
2018-11-22T07:24:06.486Z,930.33
2018-11-22T07:25:06.440Z,930.32
2018-11-22T07:26:06.395Z,930.32
2018-11-22T07:27:06.344Z,930.32
2018-11-22T07:28:06.297Z,930.34
2018-11-22T07:29:06.249Z,930.35
2018-11-22T07:30:06.203Z,930.34
2018-11-22T07:31:06.155Z,930.35
2018-11-22T07:32:06.107Z,930.36
2018-11-22T07:33:06.060Z,930.32
2018-11-22T07:34:06.012Z,930.32
2018-11-22T07:35:05.965Z,930.36
2018-11-22T07:36:05.917Z,930.37
2018-11-22T07:37:05.871Z,930.33
2018-11-22T07:38:05.823Z,930.38
2018-11-22T07:39:05.780Z,930.40
2018-11-22T07:40:05.728Z,930.42
2018-11-22T07:41:05.681Z,930.43
2018-11-22T07:42:05.633Z,930.46
2018-11-22T07:43:05.585Z,930.45
2018-11-22T07:44:06.370Z,930.46
2018-11-22T07:45:05.493Z,930.45
2018-11-22T07:46:05.443Z,930.42
2018-11-22T07:47:05.397Z,930.46
2018-11-22T07:48:05.349Z,930.44
2018-11-22T07:49:05.301Z,930.49
2018-11-22T07:50:05.260Z,930.48
2018-11-22T07:51:05.206Z,930.48
2018-11-22T07:52:05.162Z,930.46
2018-11-22T07:53:05.111Z,930.46
2018-11-22T07:54:05.063Z,930.46
2018-11-22T07:55:05.018Z,930.46
2018-11-22T07:56:04.970Z,930.44
2018-11-22T07:57:04.921Z,930.47
2018-11-22T07:58:04.873Z,930.46
2018-11-22T07:59:04.829Z,930.50
2018-11-22T08:00:04.779Z,930.48
2018-11-22T08:01:04.731Z,930.48
2018-11-22T08:02:04.684Z,930.45
2018-11-22T08:03:04.636Z,930.49
2018-11-22T08:04:04.589Z,930.50
2018-11-22T08:05:04.542Z,930.47
2018-11-22T08:06:04.493Z,930.50
2018-11-22T08:07:04.447Z,930.52
2018-11-22T08:08:04.399Z,930.54
2018-11-22T08:09:04.351Z,930.51
2018-11-22T08:10:04.306Z,930.51
2018-11-22T08:11:04.260Z,930.51
2018-11-22T08:12:04.212Z,930.52
2018-11-22T08:13:04.161Z,930.58
2018-11-22T08:14:04.114Z,930.55
2018-11-22T08:15:04.068Z,930.57
2018-11-22T08:16:04.020Z,930.55
2018-11-22T08:17:03.974Z,930.63
2018-11-22T08:18:03.924Z,930.60
2018-11-22T08:19:03.876Z,930.58
2018-11-22T08:20:03.842Z,930.60
2018-11-22T08:21:04.914Z,930.56
2018-11-22T08:22:03.735Z,930.60
2018-11-22T08:23:03.686Z,930.59
2018-11-22T08:24:03.639Z,930.63
2018-11-22T08:25:03.592Z,930.58
2018-11-22T08:26:03.546Z,930.57
2018-11-22T08:27:03.496Z,930.63
2018-11-22T08:28:03.450Z,930.59
2018-11-22T08:29:03.404Z,930.59
2018-11-22T08:30:03.355Z,930.59
2018-11-22T08:31:03.307Z,930.62
2018-11-22T08:32:03.260Z,930.59
2018-11-22T08:33:03.212Z,930.65
2018-11-22T08:34:03.165Z,930.66
2018-11-22T08:35:03.116Z,930.63
2018-11-22T08:36:03.070Z,930.62
2018-11-22T08:37:03.022Z,930.70
2018-11-22T08:38:02.975Z,930.69
2018-11-22T08:39:02.927Z,930.69
2018-11-22T08:40:02.884Z,930.68
2018-11-22T08:41:02.833Z,930.68
2018-11-22T08:42:02.785Z,930.68
2018-11-22T08:43:02.738Z,930.69
2018-11-22T08:44:02.694Z,930.69
2018-11-22T08:45:02.672Z,930.72
2018-11-22T08:46:02.603Z,930.73
2018-11-22T08:47:02.549Z,930.73
2018-11-22T08:48:02.501Z,930.76
2018-11-22T08:49:02.466Z,930.76
2018-11-22T08:50:02.409Z,930.76
2018-11-22T08:51:02.362Z,930.81
2018-11-22T08:52:02.356Z,930.83
2018-11-22T08:53:02.265Z,930.82
2018-11-22T08:54:02.225Z,930.81
2018-11-22T08:55:02.183Z,930.88
2018-11-22T08:56:02.125Z,930.87
2018-11-22T08:57:02.084Z,930.88
2018-11-22T08:58:02.036Z,930.85
2018-11-22T08:59:01.986Z,930.89
2018-11-22T09:00:01.938Z,930.93
2018-11-22T09:01:01.891Z,930.93
2018-11-22T09:02:01.846Z,930.92
2018-11-22T09:03:01.799Z,930.95
2018-11-22T09:04:01.752Z,930.96
2018-11-22T09:05:01.706Z,930.97
2018-11-22T09:06:01.660Z,930.94
2018-11-22T09:07:01.612Z,930.90
2018-11-22T09:08:01.609Z,930.91
2018-11-22T09:09:01.523Z,930.96
2018-11-22T09:10:02.437Z,930.99
2018-11-22T09:11:01.429Z,930.96
2018-11-22T09:12:01.385Z,930.99
2018-11-22T09:13:01.339Z,930.98
2018-11-22T09:14:01.299Z,931.06
2018-11-22T09:15:01.249Z,931.07
2018-11-22T09:16:01.202Z,931.01
2018-11-22T09:17:01.157Z,931.08
2018-11-22T09:18:01.112Z,931.12
2018-11-22T09:19:01.067Z,931.12
2018-11-22T09:20:01.022Z,931.18
2018-11-22T09:21:00.975Z,931.24
2018-11-22T09:22:00.936Z,931.23
2018-11-22T09:23:00.886Z,931.18
2018-11-22T09:24:00.840Z,931.22
2018-11-22T09:25:00.795Z,931.25
2018-11-22T09:26:00.755Z,931.27
2018-11-22T09:27:00.710Z,931.26
2018-11-22T09:28:00.662Z,931.25
2018-11-22T09:29:00.619Z,931.27
2018-11-22T09:30:00.582Z,931.31
2018-11-22T09:31:00.532Z,931.28
2018-11-22T09:32:00.488Z,931.30
2018-11-22T09:33:00.443Z,931.34
2018-11-22T09:34:00.400Z,931.32
2018-11-22T09:35:00.357Z,931.34
2018-11-22T09:36:00.314Z,931.35
2018-11-22T09:37:00.274Z,931.39
2018-11-22T09:38:00.230Z,931.38
2018-11-22T09:39:00.190Z,931.36
2018-11-22T09:40:00.145Z,931.41
2018-11-22T09:41:00.102Z,931.45
2018-11-22T09:42:00.107Z,931.46
2018-11-22T09:43:00.019Z,931.46
2018-11-22T09:43:59.991Z,931.44
2018-11-22T09:44:59.937Z,931.45
2018-11-22T09:45:59.897Z,931.45
2018-11-22T09:46:59.856Z,931.51
2018-11-22T09:47:59.820Z,931.46
2018-11-22T09:48:59.774Z,931.61
2018-11-22T09:49:59.736Z,931.57
2018-11-22T09:50:59.699Z,931.56
2018-11-22T09:51:59.657Z,931.51
2018-11-22T09:52:59.616Z,931.53
2018-11-22T09:53:59.576Z,931.58
2018-11-22T09:54:59.534Z,931.59
2018-11-22T09:55:59.495Z,931.53
2018-11-22T09:56:59.455Z,931.63
2018-11-22T09:57:59.420Z,931.64
2018-11-22T09:58:59.436Z,931.68
2018-11-22T09:59:59.334Z,931.66
2018-11-22T10:00:59.304Z,931.67
2018-11-22T10:01:59.254Z,931.66
2018-11-22T10:02:59.250Z,931.68
2018-11-22T10:03:59.180Z,931.68
2018-11-22T10:04:59.336Z,931.70
2018-11-22T10:05:59.108Z,931.76
2018-11-22T10:06:59.058Z,931.67
2018-11-22T10:07:59.019Z,931.70
2018-11-22T10:08:58.983Z,931.68
2018-11-22T10:09:58.940Z,931.75
2018-11-22T10:10:58.901Z,931.70
2018-11-22T10:11:58.869Z,931.71
2018-11-22T10:12:58.828Z,931.75
2018-11-22T10:13:58.786Z,931.76
2018-11-22T10:14:58.747Z,931.75
2018-11-22T10:15:58.712Z,931.75
2018-11-22T10:16:58.700Z,931.74
2018-11-22T10:17:58.640Z,931.72
2018-11-22T10:18:58.595Z,931.71
2018-11-22T10:19:58.557Z,931.74
2018-11-22T10:20:58.548Z,931.70
2018-11-22T10:21:58.481Z,931.73
2018-11-22T10:22:58.446Z,931.70
2018-11-22T10:23:58.515Z,931.77
2018-11-22T10:24:58.369Z,931.74
2018-11-22T10:25:58.336Z,931.69
2018-11-22T10:26:58.295Z,931.69
2018-11-22T10:27:58.255Z,931.69
2018-11-22T10:28:58.214Z,931.75
2018-11-22T10:29:58.176Z,931.70
2018-11-22T10:30:58.145Z,931.70
2018-11-22T10:31:58.106Z,931.69
2018-11-22T10:32:58.063Z,931.70
2018-11-22T10:33:58.041Z,931.73
2018-11-22T10:34:57.978Z,931.80
2018-11-22T10:35:57.938Z,931.74
2018-11-22T10:36:57.897Z,931.70
2018-11-22T10:37:58.001Z,931.75
2018-11-22T10:38:57.869Z,931.79
2018-11-22T10:39:57.775Z,931.72
2018-11-22T10:40:57.743Z,931.77
2018-11-22T10:41:57.697Z,931.79
2018-11-22T10:42:57.653Z,931.77
2018-11-22T10:43:57.617Z,931.77
2018-11-22T10:44:57.570Z,931.78
2018-11-22T10:45:57.538Z,931.79
2018-11-22T10:46:57.492Z,931.81
2018-11-22T10:47:57.453Z,931.80
2018-11-22T10:48:57.404Z,931.81
2018-11-22T10:49:57.365Z,931.86
2018-11-22T10:50:57.327Z,931.84
2018-11-22T10:51:57.285Z,931.91
2018-11-22T10:52:57.234Z,931.90
2018-11-22T10:53:57.193Z,931.92
2018-11-22T10:54:57.152Z,931.92
2018-11-22T10:55:57.107Z,931.91
2018-11-22T10:56:57.075Z,931.93
2018-11-22T10:57:57.023Z,931.89
2018-11-22T10:58:57.066Z,931.94
2018-11-22T10:59:56.939Z,931.92
2018-11-22T11:00:56.895Z,931.89
2018-11-22T11:01:56.856Z,931.90
2018-11-22T11:02:56.809Z,931.93
2018-11-22T11:03:56.764Z,931.92
2018-11-22T11:04:56.724Z,931.93
2018-11-22T11:05:56.681Z,931.94
2018-11-22T11:06:56.636Z,931.92
2018-11-22T11:07:56.594Z,931.94
2018-11-22T11:08:56.551Z,931.92
2018-11-22T11:09:56.508Z,931.90
2018-11-22T11:10:56.467Z,931.90
2018-11-22T11:11:56.422Z,931.94
2018-11-22T11:12:56.377Z,931.91
2018-11-22T11:13:56.343Z,932.00
2018-11-22T11:14:56.309Z,931.93
2018-11-22T11:15:56.251Z,931.98
2018-11-22T11:16:56.206Z,932.02
2018-11-22T11:17:56.169Z,931.95
2018-11-22T11:18:56.122Z,931.95
2018-11-22T11:19:56.076Z,931.95
2018-11-22T11:20:56.032Z,932.02
2018-11-22T11:21:55.987Z,932.02
2018-11-22T11:22:55.949Z,932.00
2018-11-22T11:23:55.906Z,931.97
2018-11-22T11:24:55.857Z,931.99
2018-11-22T11:25:55.826Z,932.00
2018-11-22T11:26:55.786Z,932.02
2018-11-22T11:27:55.764Z,932.02
2018-11-22T11:28:55.685Z,932.01
2018-11-22T11:29:55.648Z,932.06
2018-11-22T11:30:55.597Z,932.03
2018-11-22T11:31:55.560Z,932.03
2018-11-22T11:32:55.509Z,932.05
2018-11-22T11:33:55.465Z,932.04
2018-11-22T11:34:55.420Z,932.03
2018-11-22T11:35:55.389Z,932.00
2018-11-22T11:36:55.341Z,932.06
2018-11-22T11:37:55.290Z,932.07
2018-11-22T11:38:55.255Z,932.07
2018-11-22T11:40:00.571Z,932.06
2018-11-22T11:40:55.158Z,932.04
2018-11-22T11:41:55.118Z,932.06
2018-11-22T11:42:55.077Z,932.07
2018-11-22T11:43:55.032Z,932.07
2018-11-22T11:44:54.989Z,932.05
2018-11-22T11:45:54.941Z,932.05
2018-11-22T11:46:54.904Z,932.06
2018-11-22T11:47:54.853Z,932.10
2018-11-22T11:48:54.817Z,932.07
2018-11-22T11:49:54.774Z,932.08
2018-11-22T11:50:54.722Z,932.08
2018-11-22T11:51:54.680Z,932.04
2018-11-22T11:52:54.635Z,932.05
2018-11-22T11:53:54.603Z,932.06
2018-11-22T11:54:54.551Z,932.05
2018-11-22T11:55:54.505Z,932.07
2018-11-22T11:56:54.462Z,932.04
2018-11-22T11:57:54.418Z,932.04
2018-11-22T11:58:54.374Z,932.05
2018-11-22T11:59:54.330Z,932.02
2018-11-22T12:00:54.292Z,932.00
2018-11-22T12:01:54.245Z,932.05
2018-11-22T12:02:54.199Z,932.04
2018-11-22T12:03:54.158Z,932.01
2018-11-22T12:04:54.128Z,931.99
2018-11-22T12:05:54.070Z,931.94
2018-11-22T12:06:54.027Z,931.94
2018-11-22T12:07:53.982Z,931.95
2018-11-22T12:08:53.939Z,931.93
2018-11-22T12:09:56.291Z,931.98
2018-11-22T12:10:53.853Z,932.02
2018-11-22T12:11:53.809Z,931.98
2018-11-22T12:12:53.765Z,932.02
2018-11-22T12:13:53.723Z,932.02
2018-11-22T12:14:53.677Z,932.02
2018-11-22T12:15:54.127Z,932.05
2018-11-22T12:16:53.593Z,932.03
2018-11-22T12:17:53.548Z,932.02
2018-11-22T12:18:53.509Z,932.00
2018-11-22T12:19:53.480Z,932.03
2018-11-22T12:20:53.471Z,931.95
2018-11-22T12:21:53.373Z,931.96
2018-11-22T12:22:53.337Z,931.95
2018-11-22T12:23:53.301Z,931.96
2018-11-22T12:24:53.247Z,931.95
2018-11-22T12:25:53.212Z,931.96
2018-11-22T12:26:53.158Z,931.93
2018-11-22T12:27:53.123Z,931.93